Time;durP1;ratioP1;P1;durP2;ratioP2;P2;SDS_P1;SDS_P2;PMS_P1;PMS_P2;Temp;Humidity;BMP_temperature;BMP_pressure;BME280_temperature;BME280_humidity;BME280_pressure;Samples;Min_cycle;Max_cycle;Signal;HPM_P1;HPM_P2
2022/04/06 04:04:55;;;;;;;7.33;6.33;;;7.60;99.90;;;;;;5663553;23;20371;-76
2022/04/06 04:07:23;;;;;;;8.40;6.70;;;7.60;99.90;;;;;;4881696;29;20308;-74
2022/04/06 04:09:52;;;;;;;9.43;7.17;;;7.70;99.90;;;;;;4878020;29;20361;-78
2022/04/06 04:12:20;;;;;;;8.80;6.97;;;7.70;99.90;;;;;;4880421;29;20241;-75
2022/04/06 04:14:48;;;;;;;8.07;7.23;;;7.60;99.90;;;;;;4879842;29;20235;-75
2022/04/06 04:17:16;;;;;;;9.23;7.50;;;7.70;99.90;;;;;;4879697;29;20614;-76
2022/04/06 04:19:45;;;;;;;9.07;7.43;;;7.60;99.90;;;;;;4880248;29;20310;-75
2022/04/06 04:22:15;;;;;;;11.63;7.70;;;7.60;99.90;;;;;;4881712;29;20217;-77
2022/04/06 04:24:43;;;;;;;8.90;7.43;;;7.60;99.90;;;;;;4879248;29;20280;-78
2022/04/06 04:27:11;;;;;;;9.40;7.60;;;7.60;99.90;;;;;;4879816;29;20719;-76
2022/04/06 04:29:39;;;;;;;8.50;7.60;;;7.60;99.90;;;;;;4880317;29;20214;-78
2022/04/06 04:32:10;;;;;;;8.87;7.73;;;7.70;99.90;;;;;;4880224;29;20247;-76
2022/04/06 04:34:38;;;;;;;10.10;7.43;;;7.70;99.90;;;;;;4879798;29;20238;-79
2022/04/06 04:37:06;;;;;;;8.70;7.33;;;7.70;99.90;;;;;;4879844;29;20313;-75
2022/04/06 04:39:35;;;;;;;8.67;7.23;;;7.70;99.90;;;;;;4880433;29;20297;-75
2022/04/06 04:42:04;;;;;;;8.97;7.07;;;7.90;99.90;;;;;;4878857;29;20246;-75
2022/04/06 04:44:35;;;;;;;8.97;7.47;;;7.80;99.90;;;;;;4880815;29;20647;-75
2022/04/06 04:47:03;;;;;;;9.40;6.90;;;7.80;99.90;;;;;;4881126;29;20583;-74
2022/04/06 04:49:31;;;;;;;9.67;6.87;;;7.80;99.90;;;;;;4880436;29;20296;-75
2022/04/06 04:51:59;;;;;;;8.67;7.00;;;7.90;99.90;;;;;;4879949;29;20240;-77
2022/04/06 04:54:27;;;;;;;10.77;7.17;;;8.00;99.90;;;;;;4879649;29;20288;-81
2022/04/06 04:56:58;;;;;;;8.83;6.07;;;7.90;99.90;;;;;;4880120;29;20218;-76
2022/04/06 04:59:26;;;;;;;8.23;7.10;;;7.90;99.90;;;;;;4880054;29;20293;-76
2022/04/06 05:01:54;;;;;;;8.90;6.93;;;7.90;99.90;;;;;;4875623;29;20231;-75
2022/04/06 05:04:23;;;;;;;8.53;6.70;;;7.90;99.90;;;;;;4880489;29;20234;-79
2022/04/06 05:06:51;;;;;;;10.07;6.80;;;8.00;99.90;;;;;;4887548;29;20198;-76
2022/04/06 05:09:22;;;;;;;16.77;13.40;;;8.00;99.90;;;;;;4899690;29;20241;-77
2022/04/06 05:11:50;;;;;;;48.00;42.67;;;8.00;99.90;;;;;;4883360;29;20289;-76
2022/04/06 05:14:19;;;;;;;19.67;16.90;;;8.00;99.90;;;;;;4880221;29;20210;-77
2022/04/06 05:16:48;;;;;;;10.27;8.27;;;8.00;99.90;;;;;;4879964;29;20299;-79
2022/04/06 05:19:16;;;;;;;8.90;6.80;;;8.10;99.90;;;;;;4879657;29;20238;-74
2022/04/06 05:21:44;;;;;;;7.97;6.70;;;8.10;99.90;;;;;;4879421;29;20247;-76
2022/04/06 05:24:12;;;;;;;7.77;6.43;;;8.10;99.90;;;;;;4878972;29;20248;-75
2022/04/06 05:26:41;;;;;;;9.13;6.37;;;8.10;99.90;;;;;;4879389;29;20760;-77
2022/04/06 05:29:09;;;;;;;8.97;6.57;;;8.00;99.90;;;;;;4891133;29;20214;-77
2022/04/06 05:31:38;;;;;;;11.10;6.07;;;8.00;99.90;;;;;;4893414;29;20214;-75
2022/04/06 05:34:07;;;;;;;9.50;6.00;;;8.00;99.90;;;;;;4881542;29;20214;-76
2022/04/06 05:36:35;;;;;;;7.10;5.37;;;8.00;99.90;;;;;;4878650;29;20218;-78
2022/04/06 05:39:05;;;;;;;6.57;5.03;;;8.00;99.90;;;;;;4890563;29;20680;-77
2022/04/06 05:41:33;;;;;;;5.63;4.60;;;8.10;99.90;;;;;;4889719;29;20202;-77
2022/04/06 05:44:01;;;;;;;5.57;4.43;;;8.10;99.90;;;;;;4880042;29;20778;-79
2022/04/06 05:46:32;;;;;;;6.67;5.53;;;8.00;99.90;;;;;;4878668;29;20216;-82
2022/04/06 05:49:01;;;;;;;5.67;4.30;;;8.10;99.90;;;;;;4879241;29;20585;-77
2022/04/06 05:51:29;;;;;;;7.03;4.57;;;8.10;99.90;;;;;;4879380;29;20301;-78
2022/04/06 05:53:58;;;;;;;7.77;4.50;;;8.10;99.90;;;;;;4879161;29;20282;-77
2022/04/06 05:56:26;;;;;;;7.17;4.73;;;8.10;99.90;;;;;;4880788;29;20293;-77
2022/04/06 05:58:55;;;;;;;6.03;4.30;;;8.10;99.90;;;;;;4891118;29;20607;-76
2022/04/06 06:01:23;;;;;;;5.67;4.90;;;8.10;99.90;;;;;;4879411;29;20316;-76
2022/04/06 06:03:51;;;;;;;7.83;4.63;;;8.20;99.90;;;;;;4879148;29;20238;-76
2022/04/06 06:06:21;;;;;;;7.77;5.13;;;8.20;99.90;;;;;;4878936;29;20238;-76
2022/04/06 06:08:49;;;;;;;5.17;4.47;;;8.30;99.90;;;;;;4878868;29;20214;-75
2022/04/06 06:11:17;;;;;;;5.40;3.97;;;8.40;99.90;;;;;;4878580;29;20244;-79
2022/04/06 06:13:45;;;;;;;5.50;3.70;;;8.60;99.90;;;;;;4878703;29;20306;-77
2022/04/06 06:16:13;;;;;;;6.97;5.30;;;8.60;99.90;;;;;;4876468;29;20358;-75
2022/04/06 06:18:42;;;;;;;7.73;4.83;;;8.70;99.90;;;;;;4879211;29;20218;-78
2022/04/06 06:21:10;;;;;;;11.27;6.43;;;8.80;99.90;;;;;;4878667;29;20242;-77
2022/04/06 06:23:39;;;;;;;11.33;10.23;;;9.00;99.90;;;;;;4878226;29;20214;-79
2022/04/06 06:26:07;;;;;;;8.30;6.80;;;9.30;99.90;;;;;;4878287;29;20687;-75
2022/04/06 06:28:35;;;;;;;8.40;7.40;;;9.50;99.90;;;;;;4878680;29;20252;-75
2022/04/06 06:31:04;;;;;;;7.03;5.53;;;9.70;99.90;;;;;;4878114;29;20305;-78
2022/04/06 06:33:32;;;;;;;9.67;4.83;;;9.90;99.90;;;;;;4878336;29;20317;-79
2022/04/06 06:36:01;;;;;;;5.20;4.63;;;10.10;99.90;;;;;;4878214;29;20218;-77
2022/04/06 06:38:29;;;;;;;7.50;4.70;;;10.30;99.90;;;;;;4878588;29;20213;-77
2022/04/06 06:40:59;;;;;;;8.13;5.33;;;10.40;99.90;;;;;;4878454;29;20306;-77
2022/04/06 06:43:27;;;;;;;9.67;7.07;;;10.60;99.90;;;;;;4878343;29;20210;-76
2022/04/06 06:45:55;;;;;;;6.67;4.93;;;11.30;99.90;;;;;;4878848;29;20313;-76
2022/04/06 06:48:24;;;;;;;5.60;3.87;;;12.50;99.90;;;;;;4881197;29;20237;-76
2022/04/06 06:50:52;;;;;;;4.97;3.80;;;13.70;99.90;;;;;;4881998;29;20222;-76
2022/04/06 06:53:20;;;;;;;4.93;3.50;;;14.30;99.90;;;;;;4882364;29;20241;-78
2022/04/06 06:55:49;;;;;;;3.93;3.53;;;15.00;99.90;;;;;;4876153;29;20211;-77
2022/04/06 06:58:18;;;;;;;3.80;3.27;;;15.60;99.90;;;;;;4863758;29;20293;-77
2022/04/06 07:00:47;;;;;;;4.27;3.50;;;15.50;99.90;;;;;;4863865;29;20700;-77
2022/04/06 07:03:15;;;;;;;5.83;3.90;;;15.30;99.90;;;;;;4863823;29;20305;-77
2022/04/06 07:05:45;;;;;;;4.70;3.57;;;14.80;99.90;;;;;;4863840;29;20305;-77
2022/04/06 07:08:13;;;;;;;7.10;3.50;;;14.20;99.90;;;;;;4863429;29;20227;-78
2022/04/06 07:10:46;;;;;;;4.40;3.60;;;13.70;99.90;;;;;;4874050;29;20257;-76
2022/04/06 07:13:16;;;;;;;4.30;3.60;;;13.30;99.90;;;;;;4881298;29;20213;-80
2022/04/06 07:15:46;;;;;;;4.77;4.07;;;13.00;99.90;;;;;;4881403;29;20214;-78
2022/04/06 07:18:14;;;;;;;4.67;3.80;;;13.00;99.90;;;;;;4881282;29;20309;-76
2022/04/06 07:20:42;;;;;;;5.07;3.67;;;12.70;99.90;;;;;;4886955;29;20662;-79
2022/04/06 07:23:11;;;;;;;4.97;4.03;;;12.70;99.90;;;;;;4887514;29;20827;-78
2022/04/06 07:25:42;;;;;;;6.77;4.10;;;12.70;99.90;;;;;;4882819;29;20607;-76
2022/04/06 07:28:10;;;;;;;5.33;4.00;;;12.70;99.90;;;;;;4881170;29;20301;-75
2022/04/06 07:30:38;;;;;;;6.70;4.20;;;12.80;99.90;;;;;;4881413;29;20238;-75
2022/04/06 07:33:09;;;;;;;5.43;4.00;;;13.00;99.90;;;;;;4881482;29;20214;-77
2022/04/06 07:35:37;;;;;;;6.03;4.03;;;13.00;99.90;;;;;;4882365;29;20305;-77
2022/04/06 07:38:07;;;;;;;5.77;4.17;;;13.30;99.90;;;;;;4881445;29;20281;-77
2022/04/06 07:40:36;;;;;;;7.90;4.07;;;13.30;99.90;;;;;;4898429;29;20202;-77
2022/04/06 07:43:04;;;;;;;4.70;4.20;;;13.20;99.90;;;;;;4885404;29;20309;-77
2022/04/06 07:45:32;;;;;;;4.73;4.17;;;13.60;99.90;;;;;;4886570;29;20254;-77
2022/04/06 07:48:01;;;;;;;6.93;4.30;;;13.40;99.90;;;;;;4884442;29;20287;-77
2022/04/06 07:50:32;;;;;;;4.60;3.83;;;13.40;99.90;;;;;;4883143;29;20265;-78
2022/04/06 07:53:00;;;;;;;4.13;3.50;;;13.60;99.90;;;;;;4883635;29;20265;-77
2022/04/06 07:55:29;;;;;;;4.00;3.43;;;13.60;99.90;;;;;;4882992;29;20214;-76
2022/04/06 07:57:57;;;;;;;4.63;3.43;;;14.40;99.90;;;;;;4880495;29;20257;-77
2022/04/06 08:00:32;;;;;;;3.50;3.20;;;15.70;99.90;;;;;;4880709;29;20313;-81
2022/04/06 08:03:01;;;;;;;3.53;3.20;;;16.80;99.90;;;;;;4880926;29;20222;-79
2022/04/06 08:05:37;;;;;;;4.47;3.00;;;18.30;99.90;;;;;;4880260;29;20595;-81
2022/04/06 08:08:06;;;;;;;3.63;3.00;;;19.50;99.90;;;;;;4880833;29;20297;-82
2022/04/06 08:10:34;;;;;;;3.07;2.87;;;20.10;98.30;;;;;;4880626;29;20873;-80
2022/04/06 08:13:07;;;;;;;4.77;2.97;;;21.00;95.60;;;;;;4880997;29;20224;-81
2022/04/06 08:15:35;;;;;;;3.30;2.50;;;22.10;94.30;;;;;;4881656;29;20575;-80
2022/04/06 08:18:03;;;;;;;4.38;3.05;;;22.40;93.00;;;;;;4880118;29;20315;-84
2022/04/06 08:20:31;;;;;;;4.57;2.80;;;23.10;90.20;;;;;;4879445;29;20629;-81
2022/04/06 08:23:01;;;;;;;3.03;2.78;;;23.40;87.90;;;;;;4879629;29;20242;-81
2022/04/06 08:25:29;;;;;;;3.58;2.33;;;23.20;88.20;;;;;;4880910;29;20672;-80
2022/04/06 08:28:07;;;;;;;3.35;2.80;;;23.00;87.70;;;;;;4879199;29;20234;-79
2022/04/06 08:30:39;;;;;;;3.75;2.85;;;22.40;88.60;;;;;;4879048;29;20230;-80
2022/04/06 08:33:09;;;;;;;4.60;2.90;;;22.10;89.30;;;;;;4880633;29;20198;-81
2022/04/06 08:35:38;;;;;;;3.03;2.72;;;21.90;89.70;;;;;;4889046;29;20202;-79
2022/04/06 08:38:11;;;;;;;3.97;2.73;;;21.50;90.10;;;;;;4898250;29;20748;-80
2022/04/06 08:40:40;;;;;;;3.63;2.80;;;20.70;91.90;;;;;;4884219;29;20210;-80
2022/04/06 08:43:09;;;;;;;3.77;3.13;;;19.60;92.60;;;;;;4880848;29;20643;-79
2022/04/06 08:45:38;;;;;;;4.90;3.23;;;19.10;93.60;;;;;;4880029;29;20218;-78
2022/04/06 08:48:08;;;;;;;3.77;3.10;;;19.30;93.20;;;;;;4880044;29;20293;-78
2022/04/06 08:50:38;;;;;;;3.50;3.20;;;19.30;94.10;;;;;;4880218;29;20252;-78
2022/04/06 08:53:09;;;;;;;3.50;3.10;;;19.50;94.00;;;;;;4880094;29;20263;-78
2022/04/06 08:55:37;;;;;;;3.53;3.10;;;18.70;94.30;;;;;;4880525;29;20214;-78
2022/04/06 08:58:06;;;;;;;3.67;2.97;;;18.60;94.70;;;;;;4880366;29;20218;-78
2022/04/06 09:00:35;;;;;;;3.90;3.50;;;18.20;96.60;;;;;;4880641;29;20242;-76
2022/04/06 09:03:03;;;;;;;4.00;3.30;;;18.20;96.80;;;;;;4880332;29;20218;-78
2022/04/06 09:05:32;;;;;;;5.10;2.90;;;18.50;96.40;;;;;;4880229;29;20214;-78
2022/04/06 09:08:02;;;;;;;5.40;3.00;;;19.10;94.40;;;;;;4880361;29;20657;-79
2022/04/06 09:10:34;;;;;;;3.73;3.37;;;18.80;94.90;;;;;;4879786;29;20699;-78
2022/04/06 09:13:12;;;;;;;4.77;3.50;;;18.20;95.90;;;;;;4879334;29;20210;-78
2022/04/06 09:15:43;;;;;;;4.43;3.33;;;17.50;97.00;;;;;;4879988;29;20224;-77
2022/04/06 09:18:12;;;;;;;6.73;3.30;;;16.50;98.80;;;;;;4879106;29;20705;-77
2022/04/06 09:20:41;;;;;;;4.07;3.27;;;16.50;99.80;;;;;;4866970;29;20733;-77
2022/04/06 09:23:09;;;;;;;5.20;3.50;;;16.10;99.90;;;;;;4861599;29;20283;-76
2022/04/06 09:25:42;;;;;;;3.80;3.30;;;15.90;99.90;;;;;;4861501;29;20259;-77
2022/04/06 09:28:12;;;;;;;4.40;3.40;;;15.70;99.90;;;;;;4860988;29;20279;-78
2022/04/06 09:30:42;;;;;;;4.00;3.07;;;15.60;99.90;;;;;;4861131;29;20245;-77
2022/04/06 09:33:14;;;;;;;3.70;3.20;;;15.60;99.90;;;;;;4861191;29;20203;-76
2022/04/06 09:35:43;;;;;;;3.40;3.10;;;15.40;99.90;;;;;;4861366;29;20214;-78
2022/04/06 09:38:13;;;;;;;3.40;3.10;;;15.30;99.90;;;;;;4860997;29;20300;-76
2022/04/06 09:40:44;;;;;;;4.23;3.23;;;15.40;99.90;;;;;;4861376;29;20203;-77
2022/04/06 09:43:26;;;;;;;5.93;3.37;;;15.50;99.90;;;;;;4860938;29;20298;-76
2022/04/06 09:48:54;;;;;;;3.93;3.10;;;16.60;99.90;;;;;;4861536;29;20195;-79
2022/04/06 09:51:23;;;;;;;4.70;2.93;;;17.20;99.90;;;;;;4864975;29;20619;-78
2022/04/06 09:53:55;;;;;;;3.20;2.90;;;17.10;99.90;;;;;;4879184;29;20256;-78
2022/04/06 09:56:25;;;;;;;3.57;3.00;;;16.80;99.90;;;;;;4879800;29;20657;-79
2022/04/06 09:58:53;;;;;;;4.17;3.20;;;16.60;99.90;;;;;;4879350;29;20242;-78
2022/04/06 10:01:21;;;;;;;3.23;2.93;;;16.40;99.90;;;;;;4879030;29;20214;-77
2022/04/06 10:03:55;;;;;;;4.07;3.20;;;17.20;99.90;;;;;;4879175;29;20214;-78
2022/04/06 10:06:24;;;;;;;4.20;2.90;;;18.60;99.40;;;;;;4879061;29;20261;-79
2022/04/06 10:08:53;;;;;;;2.73;2.53;;;19.40;97.50;;;;;;4879646;29;20218;-80
2022/04/06 10:11:22;;;;;;;3.37;2.70;;;20.30;95.90;;;;;;4880421;29;20248;-79
2022/04/06 10:13:53;;;;;;;4.23;2.80;;;19.70;94.50;;;;;;4878016;29;20231;-78
2022/04/06 10:16:28;;;;;;;3.83;2.73;;;20.20;95.00;;;;;;4878767;29;20213;-78
2022/04/06 10:18:58;;;;;;;2.90;2.60;;;21.10;93.50;;;;;;4879069;29;20222;-80
2022/04/06 10:21:32;;;;;;;3.17;2.63;;;22.10;93.10;;;;;;4878203;29;20323;-79
2022/04/06 10:24:13;;;;;;;3.28;2.65;;;22.30;92.10;;;;;;4879290;29;20194;-79
2022/04/06 10:26:51;;;;;;;5.25;3.08;;;22.90;90.50;;;;;;4880674;29;20238;-80
2022/04/06 10:29:22;;;;;;;3.38;2.78;;;22.80;88.30;;;;;;4879881;29;20245;-79
2022/04/06 10:31:50;;;;;;;3.47;2.53;;;23.10;90.20;;;;;;4879090;29;20300;-80
2022/04/06 10:34:21;;;;;;;2.63;2.42;;;23.30;87.20;;;;;;4878750;29;20614;-79
2022/04/06 10:37:11;;;;;;;4.10;2.67;;;22.70;87.10;;;;;;4877973;29;20283;-80
2022/04/06 10:39:58;;;;;;;6.53;3.07;;;21.50;90.00;;;;;;4878517;29;20226;-78
2022/04/06 10:42:32;;;;;;;3.43;2.83;;;21.50;91.20;;;;;;4878403;29;20623;-80
2022/04/06 10:45:05;;;;;;;3.35;2.75;;;22.20;91.40;;;;;;4878133;29;20250;-81
2022/04/06 10:47:33;;;;;;;7.30;4.72;;;23.10;89.20;;;;;;4878244;29;20229;-79
2022/04/06 10:50:20;;;;;;;3.35;2.90;;;23.40;87.40;;;;;;4878036;29;20222;-79
2022/04/06 10:52:49;;;;;;;3.53;3.10;;;22.50;85.90;;;;;;4878235;29;20628;-80
2022/04/06 10:55:24;;;;;;;5.90;3.43;;;21.80;87.50;;;;;;4878192;29;20214;-77
2022/04/06 10:58:02;;;;;;;6.10;3.57;;;21.00;90.40;;;;;;4878409;29;20761;-78
2022/04/06 11:00:35;;;;;;;4.27;3.10;;;20.70;90.10;;;;;;4878980;29;20230;-79
2022/04/06 11:03:16;;;;;;;4.00;2.80;;;20.10;90.40;;;;;;4878500;29;20749;-78
2022/04/06 11:05:49;;;;;;;4.97;4.23;;;19.40;91.70;;;;;;4878450;29;20222;-78
2022/04/06 11:11:45;;;;;;;3.97;3.07;;;19.00;94.20;;;;;;4878398;29;20222;-75
2022/04/06 11:14:28;;;;;;;3.37;2.80;;;19.00;94.60;;;;;;4878413;29;20304;-79
2022/04/06 11:16:58;;;;;;;5.00;3.80;;;19.00;94.00;;;;;;4878303;29;20671;-77
2022/04/06 11:19:28;;;;;;;3.47;3.13;;;19.20;94.20;;;;;;4878464;29;20222;-78
2022/04/06 11:21:57;;;;;;;4.30;2.70;;;19.60;93.00;;;;;;4878653;29;20645;-78
2022/04/06 11:24:28;;;;;;;4.93;3.93;;;19.90;93.30;;;;;;4878608;29;20214;-78
2022/04/06 11:26:59;;;;;;;3.30;2.90;;;20.00;92.40;;;;;;4878372;29;20748;-78
2022/04/06 11:29:28;;;;;;;3.53;3.03;;;20.40;91.30;;;;;;4878313;29;20282;-78
2022/04/06 11:32:00;;;;;;;3.70;3.03;;;21.10;91.50;;;;;;4878572;29;20628;-79
2022/04/06 11:34:36;;;;;;;3.20;2.90;;;21.30;91.40;;;;;;4889200;29;20224;-79
2022/04/06 11:37:06;;;;;;;5.23;3.10;;;21.70;90.00;;;;;;4886039;29;20267;-79
2022/04/06 11:39:35;;;;;;;2.87;2.60;;;22.30;89.90;;;;;;4887790;29;20242;-79
2022/04/06 11:42:05;;;;;;;4.50;2.37;;;21.80;89.20;;;;;;4890061;29;20215;-79
2022/04/06 11:44:34;;;;;;;5.03;3.50;;;22.30;86.30;;;;;;4887713;29;20214;-77
2022/04/06 11:47:04;;;;;;;5.97;4.43;;;22.50;91.00;;;;;;4881495;29;20797;-77
2022/04/06 11:49:33;;;;;;;6.67;4.00;;;22.50;90.80;;;;;;4881514;29;20293;-76
2022/04/06 11:52:01;;;;;;;6.87;3.73;;;21.40;89.40;;;;;;4882382;29;20309;-78
2022/04/06 11:54:31;;;;;;;4.47;4.03;;;21.10;90.40;;;;;;4882132;29;20210;-77
2022/04/06 11:56:59;;;;;;;3.80;3.40;;;20.40;91.20;;;;;;4881884;29;20648;-78
2022/04/06 11:59:31;;;;;;;7.97;3.23;;;19.30;91.00;;;;;;4881327;29;20218;-77
2022/04/06 12:02:04;;;;;;;4.20;3.47;;;18.70;93.60;;;;;;4881639;29;20194;-77
2022/04/06 12:04:33;;;;;;;5.47;4.00;;;18.40;93.50;;;;;;4881913;29;20206;-78
2022/04/06 12:07:02;;;;;;;3.90;2.73;;;18.10;93.70;;;;;;4884494;29;20203;-78
2022/04/06 12:09:34;;;;;;;3.83;2.90;;;17.80;93.70;;;;;;4887586;29;20266;-78
2022/04/06 12:12:06;;;;;;;3.20;2.90;;;17.70;93.80;;;;;;4899644;29;20217;-79
2022/04/06 12:14:36;;;;;;;4.10;2.90;;;17.80;93.80;;;;;;4885966;29;20214;-75
2022/04/06 12:17:06;;;;;;;3.40;2.90;;;18.30;95.80;;;;;;4881632;29;20214;-78
2022/04/06 12:19:35;;;;;;;3.20;2.90;;;18.60;92.90;;;;;;4882181;29;20244;-77
2022/04/06 12:22:07;;;;;;;3.37;2.67;;;18.80;92.40;;;;;;4881508;29;20215;-77
2022/04/06 12:24:39;;;;;;;3.23;2.93;;;19.30;93.60;;;;;;4881353;29;20214;-78
2022/04/06 12:27:08;;;;;;;3.53;3.07;;;19.20;93.10;;;;;;4881716;29;20258;-78
2022/04/06 12:29:38;;;;;;;4.33;3.60;;;18.50;93.80;;;;;;4880846;29;20233;-78
2022/04/06 12:32:10;;;;;;;4.33;3.03;;;18.60;94.60;;;;;;4881458;29;20199;-78
2022/04/06 12:34:40;;;;;;;3.57;2.90;;;18.90;94.60;;;;;;4881374;29;20224;-78
2022/04/06 12:39:57;;;;;;;3.80;3.00;;;19.40;93.20;;;;;;4877734;29;20222;-79
2022/04/06 12:42:25;;;;;;;3.20;2.90;;;19.70;92.90;;;;;;4879180;29;20246;-79
2022/04/06 12:45:03;;;;;;;4.80;2.77;;;19.30;92.60;;;;;;4878341;29;20572;-77
2022/04/06 12:47:32;;;;;;;4.43;3.10;;;19.40;93.40;;;;;;4879922;29;20214;-80
2022/04/06 12:50:15;;;;;;;3.80;3.40;;;19.10;92.90;;;;;;4879818;29;20718;-77
2022/04/06 12:52:47;;;;;;;3.90;3.50;;;18.90;93.10;;;;;;4878879;29;20274;-78
2022/04/06 12:55:16;;;;;;;4.37;3.70;;;19.00;93.50;;;;;;4880470;29;20236;-79
2022/04/06 12:57:44;;;;;;;5.17;3.20;;;18.90;93.30;;;;;;4879887;29;20297;-78
2022/04/06 13:00:19;;;;;;;5.30;3.60;;;18.80;93.60;;;;;;4891616;29;20256;-80
2022/04/06 13:02:54;;;;;;;5.93;4.27;;;18.20;93.90;;;;;;4894960;29;20206;-79
2022/04/06 13:05:24;;;;;;;3.20;2.70;;;17.90;94.80;;;;;;4888785;29;20221;-79
2022/04/06 13:07:54;;;;;;;4.30;3.03;;;17.90;93.90;;;;;;4888008;29;20259;-80
2022/04/06 13:10:29;;;;;;;4.60;3.80;;;18.30;94.40;;;;;;4889829;29;20583;-80
2022/04/06 13:12:59;;;;;;;3.90;3.50;;;18.80;94.60;;;;;;4891537;29;20214;-80
2022/04/06 13:15:28;;;;;;;5.77;4.10;;;18.60;93.90;;;;;;4891848;29;20218;-77
2022/04/06 13:17:57;;;;;;;3.43;3.07;;;18.40;93.50;;;;;;4890225;29;20234;-78
2022/04/06 13:20:25;;;;;;;3.53;2.60;;;18.50;93.00;;;;;;4892203;29;20218;-80
2022/04/06 13:22:54;;;;;;;4.17;2.97;;;18.00;93.50;;;;;;4890840;29;20315;-79
2022/04/06 13:25:42;;;;;;;3.40;2.60;;;18.10;93.00;;;;;;4885644;29;20301;-81
2022/04/06 13:28:13;;;;;;;4.57;3.33;;;18.10;93.00;;;;;;4881025;29;20254;-78
2022/04/06 13:30:44;;;;;;;3.20;2.60;;;18.00;94.30;;;;;;4880743;29;20354;-79
2022/04/06 13:33:13;;;;;;;2.90;2.60;;;18.10;94.40;;;;;;4881622;29;20668;-78
2022/04/06 13:35:43;;;;;;;3.00;2.67;;;18.20;94.40;;;;;;4880584;29;20217;-78
2022/04/06 13:38:11;;;;;;;3.60;2.57;;;18.80;94.00;;;;;;4877705;29;20298;-78
2022/04/06 13:40:40;;;;;;;3.10;2.63;;;19.20;92.60;;;;;;4880061;29;20230;-79
2022/04/06 13:43:09;;;;;;;3.87;2.97;;;18.90;92.50;;;;;;4880050;29;20947;-75
2022/04/06 13:45:37;;;;;;;2.47;2.07;;;19.00;93.70;;;;;;4882689;29;20238;-77
2022/04/06 13:48:07;;;;;;;3.47;2.30;;;19.30;91.20;;;;;;4880883;29;20213;-79
2022/04/06 13:50:40;;;;;;;3.07;1.80;;;18.90;91.40;;;;;;4880205;29;20676;-79
2022/04/06 13:53:10;;;;;;;5.00;2.20;;;18.70;91.60;;;;;;4879104;29;20213;-77
2022/04/06 13:55:38;;;;;;;2.77;2.00;;;18.50;92.70;;;;;;4879801;29;20225;-79
2022/04/06 13:58:06;;;;;;;3.13;1.93;;;18.60;92.80;;;;;;4880350;29;20563;-79
2022/04/06 14:00:36;;;;;;;3.20;2.00;;;18.80;92.30;;;;;;4881114;29;20241;-77
2022/04/06 14:03:04;;;;;;;4.13;2.27;;;18.90;91.90;;;;;;4885791;29;20222;-80
2022/04/06 14:05:36;;;;;;;2.57;2.37;;;19.10;92.50;;;;;;4883965;29;20222;-77
2022/04/06 14:08:13;;;;;;;3.27;2.47;;;19.30;92.60;;;;;;4881948;29;20747;-79
2022/04/06 14:10:43;;;;;;;3.53;2.50;;;19.70;91.30;;;;;;4884265;29;20213;-78
2022/04/06 14:13:12;;;;;;;3.73;2.10;;;19.60;91.80;;;;;;4882638;29;20223;-79
2022/04/06 14:15:41;;;;;;;2.90;1.90;;;19.40;93.00;;;;;;4890752;29;20246;-78
2022/04/06 14:18:09;;;;;;;2.47;2.23;;;19.10;90.90;;;;;;4894672;29;20223;-78
2022/04/06 14:20:37;;;;;;;2.03;1.87;;;19.00;90.90;;;;;;4894379;29;20210;-79
2022/04/06 14:23:05;;;;;;;2.07;1.70;;;18.50;91.10;;;;;;4887464;29;20270;-79
2022/04/06 14:25:37;;;;;;;3.37;1.73;;;18.30;91.90;;;;;;4882396;29;20245;-80
2022/04/06 14:28:06;;;;;;;1.93;1.50;;;18.10;91.50;;;;;;4880926;29;20211;-77
2022/04/06 14:30:35;;;;;;;2.27;1.50;;;18.10;92.20;;;;;;4881185;29;20739;-77
2022/04/06 14:33:04;;;;;;;2.07;1.67;;;18.10;92.70;;;;;;4880210;29;20264;-77
2022/04/06 14:35:32;;;;;;;2.47;1.50;;;18.30;93.50;;;;;;4880459;29;20258;-76
2022/04/06 14:38:00;;;;;;;3.03;1.20;;;18.60;92.00;;;;;;4880928;29;20273;-79
2022/04/06 14:40:29;;;;;;;2.13;1.50;;;19.10;91.80;;;;;;4880472;29;20210;-77
2022/04/06 14:42:59;;;;;;;1.73;1.40;;;19.50;91.40;;;;;;4881441;29;20222;-78
2022/04/06 14:45:29;;;;;;;4.30;1.57;;;19.50;90.00;;;;;;4881214;29;20217;-79
2022/04/06 14:47:57;;;;;;;1.93;1.50;;;19.50;90.30;;;;;;4881532;29;20218;-78
2022/04/06 14:50:26;;;;;;;3.20;1.50;;;19.40;90.80;;;;;;4881174;29;20717;-77
2022/04/06 14:52:55;;;;;;;4.07;1.73;;;19.40;91.10;;;;;;4879767;29;20279;-78
2022/04/06 14:55:26;;;;;;;3.13;1.60;;;19.40;90.80;;;;;;4885926;29;20225;-79
2022/04/06 14:58:05;;;;;;;2.07;1.53;;;19.40;90.70;;;;;;4883776;29;20646;-78
2022/04/06 15:00:34;;;;;;;2.07;1.60;;;19.20;91.30;;;;;;4883872;29;20245;-79
2022/04/06 15:03:05;;;;;;;1.83;1.47;;;19.20;91.10;;;;;;4883070;29;20621;-79
2022/04/06 15:05:35;;;;;;;2.33;1.40;;;19.20;91.20;;;;;;4887570;29;20234;-78
2022/04/06 15:08:08;;;;;;;3.33;1.50;;;18.90;91.30;;;;;;4893013;29;20232;-81
2022/04/06 15:10:38;;;;;;;3.37;1.87;;;18.90;91.00;;;;;;4892933;29;20301;-77
2022/04/06 15:13:09;;;;;;;3.43;1.70;;;18.60;91.30;;;;;;4896205;29;20381;-77
2022/04/06 15:15:40;;;;;;;2.10;1.50;;;18.30;91.60;;;;;;4895161;29;20353;-78
2022/04/06 15:18:08;;;;;;;1.67;1.40;;;18.00;91.90;;;;;;4894626;29;20262;-78
2022/04/06 15:20:37;;;;;;;1.90;1.50;;;17.40;92.70;;;;;;4888226;29;20314;-79
2022/04/06 15:23:06;;;;;;;1.40;1.30;;;17.30;92.10;;;;;;4894602;29;20235;-77
2022/04/06 15:25:39;;;;;;;1.40;1.30;;;17.30;93.40;;;;;;4880071;29;20244;-79
2022/04/06 15:28:09;;;;;;;3.17;1.40;;;17.20;93.40;;;;;;4882128;29;20202;-78
2022/04/06 15:30:41;;;;;;;4.83;1.67;;;17.00;93.50;;;;;;4882294;29;20312;-80
2022/04/06 15:33:11;;;;;;;1.60;1.50;;;16.80;94.20;;;;;;4883145;29;20243;-78
2022/04/06 15:38:35;;;;;;;2.93;1.50;;;16.80;93.60;;;;;;4849992;29;20325;-79
2022/04/06 15:41:04;;;;;;;2.27;1.50;;;16.70;93.30;;;;;;4883595;29;20237;-79
2022/04/06 15:43:34;;;;;;;1.63;1.07;;;16.60;93.30;;;;;;4893884;29;20230;-78
2022/04/06 15:46:03;;;;;;;1.40;1.13;;;16.50;93.70;;;;;;4889260;29;20293;-77
2022/04/06 15:48:31;;;;;;;1.87;1.37;;;16.50;93.60;;;;;;4882124;29;20218;-79
2022/04/06 15:50:59;;;;;;;1.93;1.40;;;16.40;94.20;;;;;;4882356;29;20324;-77
2022/04/06 15:53:29;;;;;;;1.30;1.20;;;16.30;94.00;;;;;;4881967;29;20257;-77
2022/04/06 15:56:00;;;;;;;1.77;1.40;;;16.30;93.20;;;;;;4879753;29;20226;-78
2022/04/06 15:58:28;;;;;;;1.90;1.40;;;16.30;93.40;;;;;;4881915;29;20640;-78
2022/04/06 16:01:00;;;;;;;1.40;1.30;;;16.30;93.90;;;;;;4880449;29;20234;-79
2022/04/06 16:03:29;;;;;;;1.40;1.30;;;16.20;93.90;;;;;;4881079;29;20824;-77
2022/04/06 16:05:59;;;;;;;1.00;1.00;;;16.30;93.50;;;;;;4881096;29;20744;-76
2022/04/06 16:08:27;;;;;;;2.10;1.20;;;16.30;93.80;;;;;;4886415;29;20210;-77
2022/04/06 16:10:56;;;;;;;1.97;1.17;;;16.30;92.90;;;;;;4901324;29;20262;-78
2022/04/06 16:13:25;;;;;;;1.80;1.20;;;16.30;93.30;;;;;;4900581;29;20232;-78
2022/04/06 16:15:54;;;;;;;1.93;1.00;;;16.20;93.00;;;;;;4892692;29;20645;-80
2022/04/06 16:18:24;;;;;;;1.57;1.30;;;16.20;93.30;;;;;;4891864;29;20214;-80
2022/04/06 16:20:53;;;;;;;1.92;1.50;;;16.20;93.00;;;;;;4881688;29;20434;-80
2022/04/06 16:23:22;;;;;;;1.53;1.20;;;16.10;93.80;;;;;;4893096;29;20222;-79
2022/04/06 16:25:51;;;;;;;2.60;1.67;;;16.00;94.20;;;;;;4889474;29;20225;-79
2022/04/06 16:28:19;;;;;;;2.03;1.47;;;16.00;94.70;;;;;;4886646;29;20282;-77
2022/04/06 16:30:50;;;;;;;1.20;1.10;;;15.90;95.30;;;;;;4881625;29;20257;-76
2022/04/06 16:33:20;;;;;;;2.03;1.20;;;15.80;95.90;;;;;;4882820;29;20728;-77
2022/04/06 16:35:52;;;;;;;2.57;1.20;;;15.70;96.10;;;;;;4883458;29;20609;-77
2022/04/06 16:38:20;;;;;;;1.40;1.20;;;15.60;95.20;;;;;;4883600;29;20237;-78
2022/04/06 16:40:48;;;;;;;3.10;1.33;;;15.50;96.10;;;;;;4885928;29;20259;-79
2022/04/06 16:43:17;;;;;;;1.73;1.50;;;15.50;95.90;;;;;;4886747;29;20214;-79
2022/04/06 16:45:45;;;;;;;2.50;1.20;;;15.50;96.40;;;;;;4883267;29;20224;-78
2022/04/06 16:48:14;;;;;;;1.80;1.40;;;15.40;95.80;;;;;;4885119;29;20254;-78
2022/04/06 16:53:30;;;;;;;2.40;1.40;;;15.60;95.60;;;;;;4883575;29;20214;-77
2022/04/06 16:55:58;;;;;;;1.90;1.37;;;15.60;95.60;;;;;;4883675;29;20210;-79
2022/04/06 16:58:27;;;;;;;1.83;1.43;;;15.60;95.70;;;;;;4882980;29;20218;-80
2022/04/06 17:00:56;;;;;;;1.30;1.20;;;15.80;95.60;;;;;;4882978;29;20210;-78
2022/04/06 17:03:24;;;;;;;2.60;1.40;;;15.80;95.70;;;;;;4881526;29;20282;-79
2022/04/06 17:05:53;;;;;;;2.63;1.20;;;15.80;95.80;;;;;;4880594;29;20214;-77
2022/04/06 17:08:21;;;;;;;1.37;1.10;;;15.60;95.60;;;;;;4880385;29;20611;-79
2022/04/06 17:10:54;;;;;;;1.20;1.10;;;15.50;95.70;;;;;;4880163;29;20253;-78
2022/04/06 17:13:23;;;;;;;1.60;1.50;;;15.30;95.30;;;;;;4880344;29;20210;-78
2022/04/06 17:15:52;;;;;;;1.40;1.30;;;15.10;95.50;;;;;;4881141;29;20249;-79
2022/04/06 17:18:20;;;;;;;2.13;1.37;;;15.00;95.50;;;;;;4880382;29;20250;-79
2022/04/06 17:20:55;;;;;;;2.63;1.20;;;14.80;95.80;;;;;;4878905;29;20653;-78